sensor_id;sensor_type;location;lat;lon;timestamp;P1;durP1;ratioP1;P2;durP2;ratioP2
52266;SDS011;38223;50.940;4.034;2023-04-24T00:00:27;19.25;;;13.62;;
52266;SDS011;38223;50.940;4.034;2023-04-24T00:02:59;22.75;;;14.20;;
52266;SDS011;38223;50.940;4.034;2023-04-24T00:05:30;17.35;;;13.80;;
52266;SDS011;38223;50.940;4.034;2023-04-24T00:08:02;22.87;;;14.33;;
52266;SDS011;38223;50.940;4.034;2023-04-24T00:10:33;22.65;;;12.98;;
52266;SDS011;38223;50.940;4.034;2023-04-24T00:13:06;23.27;;;13.95;;
52266;SDS011;38223;50.940;4.034;2023-04-24T00:15:36;16.93;;;13.20;;
52266;SDS011;38223;50.940;4.034;2023-04-24T00:18:06;21.52;;;14.10;;
52266;SDS011;38223;50.940;4.034;2023-04-24T00:20:40;15.80;;;13.58;;
52266;SDS011;38223;50.940;4.034;2023-04-24T00:23:09;18.55;;;13.32;;
52266;SDS011;38223;50.940;4.034;2023-04-24T00:25:38;25.62;;;14.73;;
52266;SDS011;38223;50.940;4.034;2023-04-24T00:28:10;19.62;;;12.80;;
52266;SDS011;38223;50.940;4.034;2023-04-24T00:30:41;21.05;;;14.23;;
52266;SDS011;38223;50.940;4.034;2023-04-24T00:33:10;19.32;;;14.15;;
52266;SDS011;38223;50.940;4.034;2023-04-24T00:35:41;17.35;;;12.95;;
52266;SDS011;38223;50.940;4.034;2023-04-24T00:38:16;21.07;;;14.55;;
52266;SDS011;38223;50.940;4.034;2023-04-24T00:40:51;24.50;;;14.80;;
52266;SDS011;38223;50.940;4.034;2023-04-24T00:43:25;20.85;;;13.75;;
52266;SDS011;38223;50.940;4.034;2023-04-24T00:46:00;18.32;;;14.13;;
52266;SDS011;38223;50.940;4.034;2023-04-24T00:48:29;16.55;;;13.30;;
52266;SDS011;38223;50.940;4.034;2023-04-24T00:51:04;23.10;;;15.20;;
52266;SDS011;38223;50.940;4.034;2023-04-24T00:53:36;20.80;;;13.83;;
52266;SDS011;38223;50.940;4.034;2023-04-24T00:56:07;20.62;;;14.03;;
52266;SDS011;38223;50.940;4.034;2023-04-24T00:58:37;23.15;;;13.38;;
52266;SDS011;38223;50.940;4.034;2023-04-24T01:01:14;17.55;;;13.25;;
52266;SDS011;38223;50.940;4.034;2023-04-24T01:03:44;16.60;;;12.50;;
52266;SDS011;38223;50.940;4.034;2023-04-24T01:06:16;16.90;;;12.25;;
52266;SDS011;38223;50.940;4.034;2023-04-24T01:08:47;17.02;;;12.00;;
52266;SDS011;38223;50.940;4.034;2023-04-24T01:11:21;15.93;;;11.85;;
52266;SDS011;38223;50.940;4.034;2023-04-24T01:13:51;12.00;;;10.88;;
52266;SDS011;38223;50.940;4.034;2023-04-24T01:16:25;14.70;;;11.12;;
52266;SDS011;38223;50.940;4.034;2023-04-24T01:19:00;11.40;;;10.23;;
52266;SDS011;38223;50.940;4.034;2023-04-24T01:21:31;12.70;;;10.15;;
52266;SDS011;38223;50.940;4.034;2023-04-24T01:24:05;10.00;;;8.80;;
52266;SDS011;38223;50.940;4.034;2023-04-24T01:26:37;9.83;;;8.78;;
52266;SDS011;38223;50.940;4.034;2023-04-24T01:29:09;9.58;;;8.70;;
52266;SDS011;38223;50.940;4.034;2023-04-24T01:31:46;9.60;;;8.58;;
52266;SDS011;38223;50.940;4.034;2023-04-24T01:34:19;8.93;;;8.03;;
52266;SDS011;38223;50.940;4.034;2023-04-24T01:36:53;9.18;;;8.20;;
52266;SDS011;38223;50.940;4.034;2023-04-24T01:39:25;9.00;;;7.83;;
52266;SDS011;38223;50.940;4.034;2023-04-24T01:41:54;8.08;;;7.37;;
52266;SDS011;38223;50.940;4.034;2023-04-24T01:44:25;8.08;;;7.28;;
52266;SDS011;38223;50.940;4.034;2023-04-24T01:47:00;8.20;;;7.50;;
52266;SDS011;38223;50.940;4.034;2023-04-24T01:49:30;8.45;;;7.62;;
52266;SDS011;38223;50.940;4.034;2023-04-24T01:52:07;8.78;;;8.03;;
52266;SDS011;38223;50.940;4.034;2023-04-24T01:54:37;12.93;;;9.30;;
52266;SDS011;38223;50.940;4.034;2023-04-24T01:57:09;13.53;;;9.83;;
52266;SDS011;38223;50.940;4.034;2023-04-24T01:59:43;12.13;;;10.60;;
52266;SDS011;38223;50.940;4.034;2023-04-24T02:02:16;12.28;;;11.15;;
52266;SDS011;38223;50.940;4.034;2023-04-24T02:04:48;14.40;;;12.20;;
52266;SDS011;38223;50.940;4.034;2023-04-24T02:07:24;14.03;;;12.50;;
52266;SDS011;38223;50.940;4.034;2023-04-24T02:09:59;16.23;;;13.55;;
52266;SDS011;38223;50.940;4.034;2023-04-24T02:12:33;16.20;;;12.93;;
52266;SDS011;38223;50.940;4.034;2023-04-24T02:15:04;17.02;;;13.38;;
52266;SDS011;38223;50.940;4.034;2023-04-24T02:17:40;14.58;;;13.15;;
52266;SDS011;38223;50.940;4.034;2023-04-24T02:20:15;14.13;;;12.60;;
52266;SDS011;38223;50.940;4.034;2023-04-24T02:22:48;20.08;;;13.30;;
52266;SDS011;38223;50.940;4.034;2023-04-24T02:25:20;16.07;;;14.28;;
52266;SDS011;38223;50.940;4.034;2023-04-24T02:27:48;17.40;;;13.68;;
52266;SDS011;38223;50.940;4.034;2023-04-24T02:30:21;14.80;;;13.18;;
52266;SDS011;38223;50.940;4.034;2023-04-24T02:32:56;14.00;;;12.60;;
52266;SDS011;38223;50.940;4.034;2023-04-24T02:35:28;17.52;;;14.98;;
52266;SDS011;38223;50.940;4.034;2023-04-24T02:37:59;17.07;;;11.65;;
52266;SDS011;38223;50.940;4.034;2023-04-24T02:40:47;13.93;;;12.43;;
52266;SDS011;38223;50.940;4.034;2023-04-24T02:43:18;15.60;;;12.20;;
52266;SDS011;38223;50.940;4.034;2023-04-24T02:45:54;15.40;;;12.23;;
52266;SDS011;38223;50.940;4.034;2023-04-24T02:51:15;13.08;;;11.78;;
52266;SDS011;38223;50.940;4.034;2023-04-24T02:53:53;13.00;;;11.60;;
52266;SDS011;38223;50.940;4.034;2023-04-24T02:56:23;13.22;;;11.90;;
52266;SDS011;38223;50.940;4.034;2023-04-24T02:58:56;13.08;;;10.95;;
52266;SDS011;38223;50.940;4.034;2023-04-24T03:01:30;14.70;;;11.93;;
52266;SDS011;38223;50.940;4.034;2023-04-24T03:04:03;14.85;;;12.07;;
52266;SDS011;38223;50.940;4.034;2023-04-24T03:06:34;13.60;;;12.05;;
52266;SDS011;38223;50.940;4.034;2023-04-24T03:09:04;12.57;;;11.43;;
52266;SDS011;38223;50.940;4.034;2023-04-24T03:11:37;11.83;;;10.65;;
52266;SDS011;38223;50.940;4.034;2023-04-24T03:14:09;10.98;;;10.08;;
52266;SDS011;38223;50.940;4.034;2023-04-24T03:16:43;10.58;;;9.58;;
52266;SDS011;38223;50.940;4.034;2023-04-24T03:19:14;11.18;;;10.28;;
52266;SDS011;38223;50.940;4.034;2023-04-24T03:21:45;10.43;;;9.53;;
52266;SDS011;38223;50.940;4.034;2023-04-24T03:24:18;12.15;;;10.98;;
52266;SDS011;38223;50.940;4.034;2023-04-24T03:26:49;12.47;;;11.03;;
52266;SDS011;38223;50.940;4.034;2023-04-24T03:31:51;10.38;;;9.48;;
52266;SDS011;38223;50.940;4.034;2023-04-24T03:34:21;10.50;;;9.50;;
52266;SDS011;38223;50.940;4.034;2023-04-24T03:36:53;10.58;;;9.55;;
52266;SDS011;38223;50.940;4.034;2023-04-24T03:39:23;9.30;;;8.50;;
52266;SDS011;38223;50.940;4.034;2023-04-24T03:41:55;12.35;;;8.73;;
52266;SDS011;38223;50.940;4.034;2023-04-24T03:44:26;10.40;;;9.35;;
52266;SDS011;38223;50.940;4.034;2023-04-24T03:47:01;10.03;;;9.20;;
52266;SDS011;38223;50.940;4.034;2023-04-24T03:49:35;9.98;;;8.73;;
52266;SDS011;38223;50.940;4.034;2023-04-24T03:52:09;9.43;;;8.35;;
52266;SDS011;38223;50.940;4.034;2023-04-24T03:54:43;11.15;;;8.58;;
52266;SDS011;38223;50.940;4.034;2023-04-24T03:57:17;12.80;;;8.43;;
52266;SDS011;38223;50.940;4.034;2023-04-24T03:59:52;15.90;;;8.80;;
52266;SDS011;38223;50.940;4.034;2023-04-24T04:02:21;9.35;;;7.28;;
52266;SDS011;38223;50.940;4.034;2023-04-24T04:04:53;9.98;;;8.23;;
52266;SDS011;38223;50.940;4.034;2023-04-24T04:07:23;9.15;;;7.80;;
52266;SDS011;38223;50.940;4.034;2023-04-24T04:09:55;11.00;;;8.75;;
52266;SDS011;38223;50.940;4.034;2023-04-24T04:12:26;12.47;;;8.98;;
52266;SDS011;38223;50.940;4.034;2023-04-24T04:14:57;10.80;;;9.53;;
52266;SDS011;38223;50.940;4.034;2023-04-24T04:17:29;11.70;;;10.50;;
52266;SDS011;38223;50.940;4.034;2023-04-24T04:20:01;14.87;;;11.63;;
52266;SDS011;38223;50.940;4.034;2023-04-24T04:22:35;17.20;;;11.97;;
52266;SDS011;38223;50.940;4.034;2023-04-24T04:25:08;16.00;;;12.63;;
52266;SDS011;38223;50.940;4.034;2023-04-24T04:27:39;14.47;;;12.98;;
52266;SDS011;38223;50.940;4.034;2023-04-24T04:30:12;16.30;;;13.80;;
52266;SDS011;38223;50.940;4.034;2023-04-24T04:32:41;21.85;;;14.98;;
52266;SDS011;38223;50.940;4.034;2023-04-24T04:35:13;16.07;;;13.98;;
52266;SDS011;38223;50.940;4.034;2023-04-24T04:37:48;24.47;;;15.90;;
52266;SDS011;38223;50.940;4.034;2023-04-24T04:40:21;17.62;;;13.90;;
52266;SDS011;38223;50.940;4.034;2023-04-24T04:42:55;20.62;;;14.35;;
52266;SDS011;38223;50.940;4.034;2023-04-24T04:45:28;25.75;;;14.83;;
52266;SDS011;38223;50.940;4.034;2023-04-24T04:48:04;20.88;;;14.60;;
52266;SDS011;38223;50.940;4.034;2023-04-24T04:50:41;22.32;;;15.25;;
52266;SDS011;38223;50.940;4.034;2023-04-24T04:53:11;20.12;;;14.58;;
52266;SDS011;38223;50.940;4.034;2023-04-24T04:55:40;23.52;;;14.93;;
52266;SDS011;38223;50.940;4.034;2023-04-24T04:58:15;28.87;;;15.78;;
52266;SDS011;38223;50.940;4.034;2023-04-24T05:00:45;22.45;;;15.23;;
52266;SDS011;38223;50.940;4.034;2023-04-24T05:03:18;19.32;;;15.38;;
52266;SDS011;38223;50.940;4.034;2023-04-24T05:05:53;17.62;;;14.03;;
52266;SDS011;38223;50.940;4.034;2023-04-24T05:08:28;22.62;;;15.93;;
52266;SDS011;38223;50.940;4.034;2023-04-24T05:11:01;23.15;;;14.20;;
52266;SDS011;38223;50.940;4.034;2023-04-24T05:13:30;18.20;;;13.53;;
52266;SDS011;38223;50.940;4.034;2023-04-24T05:16:04;24.75;;;14.70;;
52266;SDS011;38223;50.940;4.034;2023-04-24T05:18:34;23.27;;;15.58;;
52266;SDS011;38223;50.940;4.034;2023-04-24T05:21:07;20.43;;;15.15;;
52266;SDS011;38223;50.940;4.034;2023-04-24T05:23:36;24.85;;;15.38;;
52266;SDS011;38223;50.940;4.034;2023-04-24T05:26:10;23.70;;;15.18;;
52266;SDS011;38223;50.940;4.034;2023-04-24T05:28:40;23.32;;;15.25;;
52266;SDS011;38223;50.940;4.034;2023-04-24T05:31:15;22.52;;;15.63;;
52266;SDS011;38223;50.940;4.034;2023-04-24T05:33:46;25.80;;;16.15;;
52266;SDS011;38223;50.940;4.034;2023-04-24T05:36:24;25.85;;;15.85;;
52266;SDS011;38223;50.940;4.034;2023-04-24T05:38:54;26.17;;;16.73;;
52266;SDS011;38223;50.940;4.034;2023-04-24T05:41:27;28.85;;;17.30;;
52266;SDS011;38223;50.940;4.034;2023-04-24T05:43:57;27.62;;;16.73;;
52266;SDS011;38223;50.940;4.034;2023-04-24T05:46:27;22.98;;;15.72;;
52266;SDS011;38223;50.940;4.034;2023-04-24T05:48:58;25.72;;;15.32;;
52266;SDS011;38223;50.940;4.034;2023-04-24T05:51:28;23.20;;;15.58;;
52266;SDS011;38223;50.940;4.034;2023-04-24T05:54:03;25.57;;;15.83;;
52266;SDS011;38223;50.940;4.034;2023-04-24T05:56:38;25.20;;;15.53;;
52266;SDS011;38223;50.940;4.034;2023-04-24T05:59:08;26.42;;;15.25;;
52266;SDS011;38223;50.940;4.034;2023-04-24T06:01:37;28.40;;;16.60;;
52266;SDS011;38223;50.940;4.034;2023-04-24T06:04:06;29.77;;;17.00;;
52266;SDS011;38223;50.940;4.034;2023-04-24T06:06:38;22.87;;;17.17;;
52266;SDS011;38223;50.940;4.034;2023-04-24T06:09:09;32.20;;;18.42;;
52266;SDS011;38223;50.940;4.034;2023-04-24T06:11:44;30.05;;;17.45;;
52266;SDS011;38223;50.940;4.034;2023-04-24T06:14:15;27.82;;;17.25;;
52266;SDS011;38223;50.940;4.034;2023-04-24T06:16:46;25.25;;;17.98;;
52266;SDS011;38223;50.940;4.034;2023-04-24T06:19:22;27.58;;;16.87;;
52266;SDS011;38223;50.940;4.034;2023-04-24T06:21:52;27.70;;;17.62;;
52266;SDS011;38223;50.940;4.034;2023-04-24T06:24:30;30.65;;;18.80;;
52266;SDS011;38223;50.940;4.034;2023-04-24T06:27:00;34.30;;;18.37;;
52266;SDS011;38223;50.940;4.034;2023-04-24T06:29:37;27.52;;;18.15;;
52266;SDS011;38223;50.940;4.034;2023-04-24T06:32:07;31.93;;;19.37;;
52266;SDS011;38223;50.940;4.034;2023-04-24T06:34:41;33.83;;;19.10;;
52266;SDS011;38223;50.940;4.034;2023-04-24T06:37:13;33.53;;;19.95;;
52266;SDS011;38223;50.940;4.034;2023-04-24T06:39:42;31.65;;;18.92;;
52266;SDS011;38223;50.940;4.034;2023-04-24T06:42:11;35.63;;;20.70;;
52266;SDS011;38223;50.940;4.034;2023-04-24T06:44:45;35.00;;;20.00;;
52266;SDS011;38223;50.940;4.034;2023-04-24T06:47:18;32.60;;;18.77;;
52266;SDS011;38223;50.940;4.034;2023-04-24T06:49:52;25.55;;;17.20;;
52266;SDS011;38223;50.940;4.034;2023-04-24T06:52:28;36.17;;;19.10;;
52266;SDS011;38223;50.940;4.034;2023-04-24T06:55:05;34.10;;;20.12;;
52266;SDS011;38223;50.940;4.034;2023-04-24T06:57:37;25.37;;;17.23;;
52266;SDS011;38223;50.940;4.034;2023-04-24T07:00:10;28.27;;;17.87;;
52266;SDS011;38223;50.940;4.034;2023-04-24T07:02:42;31.15;;;17.32;;
52266;SDS011;38223;50.940;4.034;2023-04-24T07:05:16;23.47;;;15.45;;
52266;SDS011;38223;50.940;4.034;2023-04-24T07:07:51;23.38;;;13.80;;
52266;SDS011;38223;50.940;4.034;2023-04-24T07:10:21;25.23;;;15.30;;
52266;SDS011;38223;50.940;4.034;2023-04-24T07:12:54;26.40;;;15.60;;
52266;SDS011;38223;50.940;4.034;2023-04-24T07:15:27;31.73;;;17.75;;
52266;SDS011;38223;50.940;4.034;2023-04-24T07:17:56;24.00;;;16.23;;
52266;SDS011;38223;50.940;4.034;2023-04-24T07:20:26;32.08;;;17.45;;
52266;SDS011;38223;50.940;4.034;2023-04-24T07:22:55;34.75;;;17.50;;
52266;SDS011;38223;50.940;4.034;2023-04-24T07:25:24;32.48;;;18.60;;
52266;SDS011;38223;50.940;4.034;2023-04-24T07:27:55;32.83;;;17.02;;
52266;SDS011;38223;50.940;4.034;2023-04-24T07:30:25;29.35;;;15.88;;
52266;SDS011;38223;50.940;4.034;2023-04-24T07:33:03;28.83;;;16.23;;
52266;SDS011;38223;50.940;4.034;2023-04-24T07:35:36;25.70;;;14.35;;
52266;SDS011;38223;50.940;4.034;2023-04-24T07:38:11;25.02;;;12.85;;
52266;SDS011;38223;50.940;4.034;2023-04-24T07:40:45;21.17;;;12.05;;
52266;SDS011;38223;50.940;4.034;2023-04-24T07:43:15;18.42;;;11.03;;
52266;SDS011;38223;50.940;4.034;2023-04-24T07:45:48;22.17;;;11.25;;
52266;SDS011;38223;50.940;4.034;2023-04-24T07:48:18;23.70;;;10.20;;
52266;SDS011;38223;50.940;4.034;2023-04-24T07:50:47;23.38;;;10.48;;
52266;SDS011;38223;50.940;4.034;2023-04-24T07:53:22;25.05;;;10.70;;
52266;SDS011;38223;50.940;4.034;2023-04-24T07:55:54;16.80;;;10.35;;
52266;SDS011;38223;50.940;4.034;2023-04-24T07:58:24;27.22;;;11.45;;
52266;SDS011;38223;50.940;4.034;2023-04-24T08:00:52;24.63;;;10.05;;
52266;SDS011;38223;50.940;4.034;2023-04-24T08:03:22;21.25;;;10.48;;
52266;SDS011;38223;50.940;4.034;2023-04-24T08:05:52;24.85;;;10.45;;
52266;SDS011;38223;50.940;4.034;2023-04-24T08:08:21;25.68;;;10.18;;
52266;SDS011;38223;50.940;4.034;2023-04-24T08:10:54;22.45;;;10.50;;
52266;SDS011;38223;50.940;4.034;2023-04-24T08:13:30;22.42;;;8.85;;
52266;SDS011;38223;50.940;4.034;2023-04-24T08:16:03;16.30;;;9.25;;
52266;SDS011;38223;50.940;4.034;2023-04-24T08:18:36;17.05;;;9.03;;
52266;SDS011;38223;50.940;4.034;2023-04-24T08:21:10;16.27;;;9.20;;
52266;SDS011;38223;50.940;4.034;2023-04-24T08:23:41;17.73;;;8.48;;
52266;SDS011;38223;50.940;4.034;2023-04-24T08:29:04;16.65;;;7.70;;
52266;SDS011;38223;50.940;4.034;2023-04-24T08:31:37;13.10;;;8.30;;
52266;SDS011;38223;50.940;4.034;2023-04-24T08:34:10;17.87;;;7.60;;
52266;SDS011;38223;50.940;4.034;2023-04-24T08:36:39;16.10;;;7.00;;
52266;SDS011;38223;50.940;4.034;2023-04-24T08:39:11;13.78;;;6.28;;
52266;SDS011;38223;50.940;4.034;2023-04-24T08:41:47;13.90;;;6.83;;
52266;SDS011;38223;50.940;4.034;2023-04-24T08:44:18;10.18;;;5.58;;
52266;SDS011;38223;50.940;4.034;2023-04-24T08:46:50;10.18;;;5.35;;
52266;SDS011;38223;50.940;4.034;2023-04-24T08:49:25;12.70;;;5.25;;
52266;SDS011;38223;50.940;4.034;2023-04-24T08:51:57;8.58;;;4.67;;
52266;SDS011;38223;50.940;4.034;2023-04-24T08:54:30;7.42;;;4.53;;
52266;SDS011;38223;50.940;4.034;2023-04-24T08:59:50;10.48;;;4.65;;
52266;SDS011;38223;50.940;4.034;2023-04-24T09:02:24;11.57;;;5.12;;
52266;SDS011;38223;50.940;4.034;2023-04-24T09:04:59;9.35;;;5.12;;
52266;SDS011;38223;50.940;4.034;2023-04-24T09:07:30;12.28;;;4.87;;
52266;SDS011;38223;50.940;4.034;2023-04-24T09:10:03;10.70;;;5.33;;
52266;SDS011;38223;50.940;4.034;2023-04-24T09:12:37;9.38;;;5.08;;
52266;SDS011;38223;50.940;4.034;2023-04-24T09:15:07;7.95;;;4.37;;
52266;SDS011;38223;50.940;4.034;2023-04-24T09:17:43;13.25;;;4.53;;
52266;SDS011;38223;50.940;4.034;2023-04-24T09:20:14;7.15;;;3.95;;
52266;SDS011;38223;50.940;4.034;2023-04-24T09:22:46;7.75;;;4.53;;
52266;SDS011;38223;50.940;4.034;2023-04-24T09:25:15;6.12;;;3.95;;
52266;SDS011;38223;50.940;4.034;2023-04-24T09:27:53;6.53;;;3.47;;
52266;SDS011;38223;50.940;4.034;2023-04-24T09:30:24;7.55;;;3.62;;
52266;SDS011;38223;50.940;4.034;2023-04-24T09:33:13;9.15;;;6.15;;
52266;SDS011;38223;50.940;4.034;2023-04-24T09:35:48;7.12;;;3.95;;
52266;SDS011;38223;50.940;4.034;2023-04-24T09:38:21;8.98;;;3.85;;
52266;SDS011;38223;50.940;4.034;2023-04-24T09:41:01;4.37;;;3.42;;
52266;SDS011;38223;50.940;4.034;2023-04-24T09:43:36;7.55;;;4.25;;
52266;SDS011;38223;50.940;4.034;2023-04-24T09:46:06;9.38;;;3.92;;
52266;SDS011;38223;50.940;4.034;2023-04-24T09:48:39;8.60;;;4.10;;
52266;SDS011;38223;50.940;4.034;2023-04-24T09:51:12;5.92;;;3.77;;
52266;SDS011;38223;50.940;4.034;2023-04-24T09:53:49;9.10;;;3.95;;
52266;SDS011;38223;50.940;4.034;2023-04-24T09:56:19;7.67;;;3.75;;
52266;SDS011;38223;50.940;4.034;2023-04-24T09:58:50;7.30;;;4.10;;
52266;SDS011;38223;50.940;4.034;2023-04-24T10:01:29;8.80;;;4.40;;
52266;SDS011;38223;50.940;4.034;2023-04-24T10:04:02;10.35;;;3.92;;
52266;SDS011;38223;50.940;4.034;2023-04-24T10:06:34;8.40;;;4.42;;
52266;SDS011;38223;50.940;4.034;2023-04-24T10:09:05;11.15;;;4.45;;
52266;SDS011;38223;50.940;4.034;2023-04-24T10:11:39;6.12;;;4.83;;
52266;SDS011;38223;50.940;4.034;2023-04-24T10:14:15;9.48;;;4.65;;
52266;SDS011;38223;50.940;4.034;2023-04-24T10:16:49;7.58;;;4.70;;
52266;SDS011;38223;50.940;4.034;2023-04-24T10:19:18;7.28;;;4.42;;
52266;SDS011;38223;50.940;4.034;2023-04-24T10:21:48;48.23;;;5.12;;
52266;SDS011;38223;50.940;4.034;2023-04-24T10:24:20;6.53;;;3.83;;
52266;SDS011;38223;50.940;4.034;2023-04-24T10:29:18;7.67;;;4.33;;
52266;SDS011;38223;50.940;4.034;2023-04-24T10:31:50;7.80;;;4.03;;
52266;SDS011;38223;50.940;4.034;2023-04-24T10:34:26;10.05;;;4.05;;
52266;SDS011;38223;50.940;4.034;2023-04-24T10:36:56;6.72;;;3.35;;
52266;SDS011;38223;50.940;4.034;2023-04-24T10:39:30;6.65;;;3.90;;
52266;SDS011;38223;50.940;4.034;2023-04-24T10:42:02;8.90;;;4.30;;
52266;SDS011;38223;50.940;4.034;2023-04-24T10:44:39;7.40;;;3.70;;
52266;SDS011;38223;50.940;4.034;2023-04-24T10:47:14;5.47;;;4.03;;
52266;SDS011;38223;50.940;4.034;2023-04-24T10:49:47;6.72;;;4.67;;
52266;SDS011;38223;50.940;4.034;2023-04-24T10:52:17;9.10;;;4.42;;
52266;SDS011;38223;50.940;4.034;2023-04-24T10:54:46;4.80;;;3.80;;
52266;SDS011;38223;50.940;4.034;2023-04-24T11:00:18;7.33;;;4.67;;
52266;SDS011;38223;50.940;4.034;2023-04-24T11:02:46;10.45;;;4.90;;
52266;SDS011;38223;50.940;4.034;2023-04-24T11:05:21;9.08;;;4.97;;
52266;SDS011;38223;50.940;4.034;2023-04-24T11:10:44;7.05;;;5.35;;
52266;SDS011;38223;50.940;4.034;2023-04-24T11:13:21;9.93;;;5.15;;
52266;SDS011;38223;50.940;4.034;2023-04-24T11:19:02;8.43;;;5.15;;
52266;SDS011;38223;50.940;4.034;2023-04-24T11:27:12;9.70;;;5.05;;
52266;SDS011;38223;50.940;4.034;2023-04-24T11:35:16;9.05;;;5.30;;
52266;SDS011;38223;50.940;4.034;2023-04-24T11:37:53;17.02;;;5.40;;
52266;SDS011;38223;50.940;4.034;2023-04-24T11:40:23;6.03;;;5.10;;
52266;SDS011;38223;50.940;4.034;2023-04-24T11:42:54;6.20;;;5.17;;
52266;SDS011;38223;50.940;4.034;2023-04-24T11:45:26;10.53;;;5.37;;
52266;SDS011;38223;50.940;4.034;2023-04-24T11:47:58;7.28;;;4.78;;
52266;SDS011;38223;50.940;4.034;2023-04-24T11:50:47;10.63;;;7.20;;
52266;SDS011;38223;50.940;4.034;2023-04-24T11:53:15;7.85;;;5.58;;
52266;SDS011;38223;50.940;4.034;2023-04-24T11:55:50;8.78;;;5.60;;
52266;SDS011;38223;50.940;4.034;2023-04-24T11:58:21;11.57;;;5.37;;
52266;SDS011;38223;50.940;4.034;2023-04-24T12:03:26;9.78;;;5.05;;
52266;SDS011;38223;50.940;4.034;2023-04-24T12:06:11;7.75;;;5.50;;
52266;SDS011;38223;50.940;4.034;2023-04-24T12:08:40;7.65;;;5.28;;
52266;SDS011;38223;50.940;4.034;2023-04-24T12:11:14;8.05;;;4.25;;
52266;SDS011;38223;50.940;4.034;2023-04-24T12:13:44;8.85;;;4.10;;
52266;SDS011;38223;50.940;4.034;2023-04-24T12:16:17;7.30;;;4.17;;
52266;SDS011;38223;50.940;4.034;2023-04-24T12:18:48;6.37;;;3.87;;
52266;SDS011;38223;50.940;4.034;2023-04-24T12:21:22;7.42;;;3.52;;
52266;SDS011;38223;50.940;4.034;2023-04-24T12:23:57;5.20;;;3.42;;
52266;SDS011;38223;50.940;4.034;2023-04-24T12:26:27;5.50;;;3.40;;
52266;SDS011;38223;50.940;4.034;2023-04-24T12:29:01;6.50;;;3.40;;
52266;SDS011;38223;50.940;4.034;2023-04-24T12:31:37;4.72;;;3.17;;
52266;SDS011;38223;50.940;4.034;2023-04-24T12:34:18;6.15;;;3.58;;
52266;SDS011;38223;50.940;4.034;2023-04-24T12:36:50;10.65;;;3.27;;
52266;SDS011;38223;50.940;4.034;2023-04-24T12:39:30;5.75;;;2.87;;
52266;SDS011;38223;50.940;4.034;2023-04-24T12:42:08;4.75;;;2.52;;
52266;SDS011;38223;50.940;4.034;2023-04-24T12:44:41;4.65;;;2.50;;
52266;SDS011;38223;50.940;4.034;2023-04-24T12:47:13;6.42;;;2.65;;
52266;SDS011;38223;50.940;4.034;2023-04-24T12:49:44;4.58;;;2.30;;
52266;SDS011;38223;50.940;4.034;2023-04-24T12:52:17;3.50;;;2.50;;
52266;SDS011;38223;50.940;4.034;2023-04-24T12:54:55;4.05;;;2.22;;
52266;SDS011;38223;50.940;4.034;2023-04-24T12:57:32;3.00;;;2.42;;
52266;SDS011;38223;50.940;4.034;2023-04-24T13:00:02;4.12;;;1.92;;
52266;SDS011;38223;50.940;4.034;2023-04-24T13:02:39;4.53;;;2.45;;
52266;SDS011;38223;50.940;4.034;2023-04-24T13:05:07;3.60;;;2.25;;
52266;SDS011;38223;50.940;4.034;2023-04-24T13:07:39;2.62;;;2.27;;
52266;SDS011;38223;50.940;4.034;2023-04-24T13:10:07;4.75;;;2.00;;
52266;SDS011;38223;50.940;4.034;2023-04-24T13:12:39;5.97;;;1.87;;
52266;SDS011;38223;50.940;4.034;2023-04-24T13:15:13;4.37;;;1.45;;
52266;SDS011;38223;50.940;4.034;2023-04-24T13:17:45;8.78;;;1.60;;
52266;SDS011;38223;50.940;4.034;2023-04-24T13:20:14;3.23;;;1.43;;
52266;SDS011;38223;50.940;4.034;2023-04-24T13:25:34;3.98;;;1.70;;
52266;SDS011;38223;50.940;4.034;2023-04-24T13:28:08;4.03;;;1.87;;
52266;SDS011;38223;50.940;4.034;2023-04-24T13:30:37;3.22;;;1.67;;
52266;SDS011;38223;50.940;4.034;2023-04-24T13:33:08;4.22;;;1.80;;
52266;SDS011;38223;50.940;4.034;2023-04-24T13:35:38;3.50;;;1.60;;
52266;SDS011;38223;50.940;4.034;2023-04-24T13:38:05;6.25;;;1.80;;
52266;SDS011;38223;50.940;4.034;2023-04-24T13:40:43;3.02;;;1.92;;
52266;SDS011;38223;50.940;4.034;2023-04-24T13:43:13;6.72;;;1.72;;
52266;SDS011;38223;50.940;4.034;2023-04-24T13:45:41;3.77;;;1.72;;
52266;SDS011;38223;50.940;4.034;2023-04-24T13:48:17;6.58;;;2.00;;
52266;SDS011;38223;50.940;4.034;2023-04-24T13:50:47;3.02;;;1.40;;
52266;SDS011;38223;50.940;4.034;2023-04-24T13:53:16;5.95;;;1.57;;
52266;SDS011;38223;50.940;4.034;2023-04-24T13:55:44;2.52;;;1.40;;
52266;SDS011;38223;50.940;4.034;2023-04-24T13:58:14;3.02;;;1.22;;
52266;SDS011;38223;50.940;4.034;2023-04-24T14:00:46;2.77;;;1.20;;
52266;SDS011;38223;50.940;4.034;2023-04-24T14:03:18;3.42;;;1.50;;
52266;SDS011;38223;50.940;4.034;2023-04-24T14:05:49;2.60;;;1.25;;
52266;SDS011;38223;50.940;4.034;2023-04-24T14:08:24;3.30;;;1.47;;
52266;SDS011;38223;50.940;4.034;2023-04-24T14:10:53;2.87;;;1.30;;
52266;SDS011;38223;50.940;4.034;2023-04-24T14:13:24;2.65;;;1.00;;
52266;SDS011;38223;50.940;4.034;2023-04-24T14:15:56;4.08;;;0.80;;
52266;SDS011;38223;50.940;4.034;2023-04-24T14:20:56;4.47;;;1.20;;
52266;SDS011;38223;50.940;4.034;2023-04-24T14:23:27;5.12;;;1.07;;
52266;SDS011;38223;50.940;4.034;2023-04-24T14:25:59;3.45;;;0.80;;
52266;SDS011;38223;50.940;4.034;2023-04-24T14:28:29;3.25;;;1.25;;
52266;SDS011;38223;50.940;4.034;2023-04-24T14:31:25;3.17;;;1.00;;
52266;SDS011;38223;50.940;4.034;2023-04-24T14:33:59;6.33;;;1.00;;
52266;SDS011;38223;50.940;4.034;2023-04-24T14:36:28;9.58;;;1.20;;
52266;SDS011;38223;50.940;4.034;2023-04-24T14:38:59;3.67;;;1.22;;
52266;SDS011;38223;50.940;4.034;2023-04-24T14:41:28;5.37;;;1.40;;
52266;SDS011;38223;50.940;4.034;2023-04-24T14:43:59;3.98;;;1.00;;
52266;SDS011;38223;50.940;4.034;2023-04-24T14:46:31;2.05;;;1.10;;
52266;SDS011;38223;50.940;4.034;2023-04-24T14:49:01;3.60;;;1.12;;
52266;SDS011;38223;50.940;4.034;2023-04-24T14:51:31;9.28;;;1.30;;
52266;SDS011;38223;50.940;4.034;2023-04-24T14:54:03;4.78;;;1.00;;
52266;SDS011;38223;50.940;4.034;2023-04-24T14:56:34;4.87;;;1.20;;
52266;SDS011;38223;50.940;4.034;2023-04-24T14:59:06;4.75;;;1.20;;
52266;SDS011;38223;50.940;4.034;2023-04-24T15:01:38;2.02;;;0.88;;
52266;SDS011;38223;50.940;4.034;2023-04-24T15:04:13;2.25;;;0.98;;
52266;SDS011;38223;50.940;4.034;2023-04-24T15:06:41;1.98;;;0.82;;
52266;SDS011;38223;50.940;4.034;2023-04-24T15:09:13;2.02;;;1.02;;
52266;SDS011;38223;50.940;4.034;2023-04-24T15:11:44;3.22;;;0.70;;
52266;SDS011;38223;50.940;4.034;2023-04-24T15:14:15;3.33;;;1.07;;
52266;SDS011;38223;50.940;4.034;2023-04-24T15:16:45;3.02;;;0.95;;
52266;SDS011;38223;50.940;4.034;2023-04-24T15:19:16;2.15;;;1.00;;
52266;SDS011;38223;50.940;4.034;2023-04-24T15:21:52;3.35;;;1.05;;
52266;SDS011;38223;50.940;4.034;2023-04-24T15:24:23;2.70;;;1.07;;
52266;SDS011;38223;50.940;4.034;2023-04-24T15:26:55;2.67;;;1.12;;
52266;SDS011;38223;50.940;4.034;2023-04-24T15:29:28;1.82;;;1.10;;
52266;SDS011;38223;50.940;4.034;2023-04-24T15:31:58;1.98;;;1.00;;
52266;SDS011;38223;50.940;4.034;2023-04-24T15:34:28;8.70;;;0.98;;
52266;SDS011;38223;50.940;4.034;2023-04-24T15:36:58;2.98;;;1.57;;
52266;SDS011;38223;50.940;4.034;2023-04-24T15:39:28;2.15;;;0.70;;
52266;SDS011;38223;50.940;4.034;2023-04-24T15:41:58;2.60;;;0.72;;
52266;SDS011;38223;50.940;4.034;2023-04-24T15:44:26;2.83;;;0.90;;